Portada
METAR-TAF:

METAR-TAF

Aeroports :

Irene, Sud-àfrica

latitud: 25-54-36S, longitud: 28-12-40E, altitud: 1523 m

Observació

L'informe es va fer fa 24 hores i 56 minuts, a les 07:46 UTC
Vent 2 kt del Nord
Temperatura 17°C
Humitat 55%
Pressió 1030 hPa
Visibilitat 10 km o més
sense núvols per sota de 1500 mi sense presència de cumulonimbus.

METAR: FAIR 230746Z 36002KT CAVOK 17/08 Q1030

Hora: 10:42 (08:42 UTC)


TAF: manca

Observacions i pronòstics meteorològics de més de 4000 aeroports (METAR i TAF).

Les estacions disponibles són els punts grocs i vermells al mapa.

Posi el ratolí al punt desitjat per veure el nom de l'estació.

Feu clic per veure les observacions i els pronòstics meteorològics.

Per canviar el mapa: feu clic els botons verds amb una creu de color negre per apropar; al botó verd amb un guió per allunyar la imatge; o en les fletxes verdes per a mapes adjacents.


METAR-TAF: